createdAt,value
2023-02-16T00:01:54.758Z,283.73
2023-02-16T00:04:26.211Z,363.97
2023-02-16T00:06:54.261Z,268.03
2023-02-16T00:09:22.069Z,124.50
2023-02-16T00:12:08.355Z,126.80
2023-02-16T00:14:36.548Z,142.80
2023-02-16T00:17:04.313Z,142.27
2023-02-16T00:19:31.399Z,172.03
2023-02-16T00:21:59.711Z,199.67
2023-02-16T00:24:27.826Z,114.20
2023-02-16T00:26:54.988Z,119.23
2023-02-16T00:29:26.302Z,119.10
2023-02-16T00:31:54.542Z,140.50
2023-02-16T00:34:38.141Z,143.83
2023-02-16T00:37:07.231Z,145.57
2023-02-16T00:39:34.578Z,159.77
2023-02-16T00:42:03.295Z,123.53
2023-02-16T00:44:33.742Z,163.43
2023-02-16T00:47:02.326Z,185.57
2023-02-16T00:49:29.460Z,146.83
2023-02-16T00:51:56.640Z,150.80
2023-02-16T00:54:23.857Z,134.13
2023-02-16T00:56:51.130Z,190.30
2023-02-16T00:59:20.247Z,247.43
2023-02-16T01:01:47.513Z,253.60
2023-02-16T01:04:19.703Z,244.20
2023-02-16T01:07:05.860Z,337.90
2023-02-16T01:09:51.817Z,149.77
2023-02-16T01:12:20.182Z,181.87
2023-02-16T01:14:49.230Z,190.37
2023-02-16T01:17:16.365Z,217.47
2023-02-16T01:19:43.775Z,217.17
2023-02-16T01:22:10.964Z,207.27
2023-02-16T01:24:38.086Z,129.20
2023-02-16T01:27:05.246Z,151.77
2023-02-16T01:29:32.405Z,139.67
2023-02-16T01:31:59.660Z,150.07
2023-02-16T01:34:26.887Z,149.80
2023-02-16T01:36:54.032Z,158.53
2023-02-16T01:39:21.648Z,172.30
2023-02-16T01:42:04.269Z,144.53
2023-02-16T01:44:35.253Z,142.97
2023-02-16T01:47:08.406Z,156.97
2023-02-16T01:49:35.536Z,156.10
2023-02-16T01:52:14.679Z,167.87
2023-02-16T01:54:44.385Z,178.53
2023-02-16T01:57:30.313Z,165.70
2023-02-16T01:59:57.511Z,182.87
2023-02-16T02:02:29.864Z,170.80
2023-02-16T02:05:18.380Z,175.33
2023-02-16T02:07:51.044Z,178.23
2023-02-16T02:10:22.234Z,169.73
2023-02-16T02:12:52.120Z,172.43
2023-02-16T02:15:22.607Z,196.40
2023-02-16T02:17:49.765Z,178.90
2023-02-16T02:20:19.730Z,167.13
2023-02-16T02:23:05.613Z,177.63
2023-02-16T02:25:58.730Z,184.23
2023-02-16T02:28:42.669Z,134.10
2023-02-16T02:31:33.489Z,169.40
2023-02-16T02:34:11.685Z,169.03
2023-02-16T02:36:50.680Z,166.80
2023-02-16T02:39:33.200Z,169.63
2023-02-16T02:42:21.228Z,170.40
2023-02-16T02:44:51.353Z,166.10
2023-02-16T02:47:18.775Z,169.27
2023-02-16T02:49:53.036Z,163.80
2023-02-16T02:52:21.240Z,177.97
2023-02-16T02:55:08.343Z,168.33
2023-02-16T02:57:56.968Z,170.77
2023-02-16T03:00:44.420Z,157.83
2023-02-16T03:03:18.937Z,170.73
2023-02-16T03:05:49.269Z,176.63
2023-02-16T03:08:17.653Z,166.60
2023-02-16T03:11:09.274Z,191.80
2023-02-16T03:13:47.399Z,178.10
2023-02-16T03:16:17.620Z,187.67
2023-02-16T03:19:05.218Z,180.07
2023-02-16T03:21:51.677Z,183.70
2023-02-16T03:24:47.685Z,187.13
2023-02-16T03:27:35.292Z,177.80
2023-02-16T03:30:04.642Z,170.70
2023-02-16T03:32:31.839Z,189.77
2023-02-16T03:34:58.995Z,195.33
2023-02-16T03:37:26.256Z,185.07
2023-02-16T03:40:12.616Z,195.43
2023-02-16T03:42:39.724Z,184.93
2023-02-16T03:45:07.244Z,188.80
2023-02-16T03:47:34.363Z,176.47
2023-02-16T03:50:01.523Z,185.93
2023-02-16T03:52:28.664Z,176.63
2023-02-16T03:54:55.784Z,172.30
2023-02-16T03:57:22.905Z,161.87
2023-02-16T03:59:50.861Z,175.37
2023-02-16T04:02:18.022Z,187.67
2023-02-16T04:04:45.196Z,184.00
2023-02-16T04:07:12.362Z,177.83
2023-02-16T04:09:39.744Z,180.47
2023-02-16T04:12:25.885Z,174.50
2023-02-16T04:14:52.999Z,178.47
2023-02-16T04:17:20.162Z,166.53
2023-02-16T04:19:47.327Z,174.60
2023-02-16T04:22:14.449Z,180.10
2023-02-16T04:24:41.646Z,178.03
2023-02-16T04:27:08.761Z,145.30
2023-02-16T04:29:35.876Z,183.97
2023-02-16T04:32:03.133Z,168.20
2023-02-16T04:34:30.431Z,178.83
2023-02-16T04:36:57.627Z,170.07
2023-02-16T04:39:24.884Z,176.77
2023-02-16T04:41:52.021Z,170.73
2023-02-16T04:44:19.170Z,162.77
2023-02-16T04:46:46.306Z,185.57
2023-02-16T04:49:13.462Z,163.43
2023-02-16T04:51:40.567Z,180.00
2023-02-16T04:54:08.199Z,173.70
2023-02-16T04:56:35.366Z,179.33
2023-02-16T04:59:02.543Z,183.87
2023-02-16T05:01:29.773Z,179.27
2023-02-16T05:03:57.400Z,195.70
2023-02-16T05:06:24.622Z,180.87
2023-02-16T05:08:51.770Z,176.63
2023-02-16T05:11:37.759Z,188.40
2023-02-16T05:14:23.792Z,179.17
2023-02-16T05:16:50.933Z,173.77
2023-02-16T05:19:18.062Z,193.37
2023-02-16T05:21:45.188Z,175.67
2023-02-16T05:24:12.647Z,188.07
2023-02-16T05:26:40.318Z,188.80
2023-02-16T05:29:07.712Z,185.00
2023-02-16T05:31:35.017Z,185.83
2023-02-16T05:34:02.371Z,188.97
2023-02-16T05:36:29.489Z,183.43
2023-02-16T05:38:57.010Z,173.40
2023-02-16T05:41:24.160Z,193.90
2023-02-16T05:43:55.395Z,175.53
2023-02-16T05:46:24.128Z,186.87
2023-02-16T05:48:51.696Z,195.83
2023-02-16T05:51:18.940Z,182.53
2023-02-16T05:53:46.533Z,188.83
2023-02-16T05:56:13.677Z,199.07
2023-02-16T05:58:40.942Z,206.47
2023-02-16T06:01:08.122Z,190.97
2023-02-16T06:03:36.010Z,205.07
2023-02-16T06:06:04.080Z,204.70
2023-02-16T06:08:31.416Z,201.17
2023-02-16T06:10:58.908Z,223.20
2023-02-16T06:13:26.390Z,194.10
2023-02-16T06:15:54.636Z,226.73
2023-02-16T06:18:21.857Z,209.97
2023-02-16T06:20:49.168Z,207.03
2023-02-16T06:23:16.429Z,218.40
2023-02-16T06:25:49.662Z,227.87
2023-02-16T06:28:16.822Z,224.77
2023-02-16T06:30:43.969Z,220.73
2023-02-16T06:33:11.169Z,241.20
2023-02-16T06:35:38.354Z,243.43
2023-02-16T06:38:05.482Z,245.20
2023-02-16T06:40:32.616Z,231.40
2023-02-16T06:42:59.774Z,262.47
2023-02-16T06:45:26.902Z,245.20
2023-02-16T06:47:54.060Z,234.60
2023-02-16T06:50:21.215Z,237.07
2023-02-16T06:52:48.366Z,244.53
2023-02-16T06:55:15.522Z,237.03
2023-02-16T06:57:42.711Z,220.40
2023-02-16T07:00:10.127Z,246.23
2023-02-16T07:02:37.574Z,279.10
2023-02-16T07:05:05.749Z,265.47
2023-02-16T07:07:32.881Z,239.07
2023-02-16T07:10:00.041Z,273.47
2023-02-16T07:12:27.202Z,239.30
2023-02-16T07:14:54.299Z,289.67
2023-02-16T07:17:21.487Z,350.67
2023-02-16T07:19:48.634Z,355.20
2023-02-16T07:22:16.687Z,328.80
2023-02-16T07:24:43.890Z,372.67
2023-02-16T07:27:11.016Z,316.90
2023-02-16T07:29:38.197Z,348.27
2023-02-16T07:32:05.540Z,297.50
2023-02-16T07:34:32.870Z,346.40
2023-02-16T07:37:00.152Z,409.63
2023-02-16T07:39:29.349Z,499.30
2023-02-16T07:41:56.488Z,720.73
2023-02-16T07:44:23.620Z,436.40
2023-02-16T07:46:50.756Z,440.23
2023-02-16T07:49:17.928Z,482.90
2023-02-16T07:51:45.087Z,378.07
2023-02-16T07:54:12.494Z,594.97
2023-02-16T07:56:39.661Z,708.67
2023-02-16T07:59:07.079Z,573.03
2023-02-16T08:01:35.271Z,605.80
2023-02-16T08:04:02.448Z,546.90
2023-02-16T08:06:29.612Z,548.03
2023-02-16T08:08:57.534Z,428.07
2023-02-16T08:11:25.335Z,951.40
2023-02-16T08:13:53.057Z,807.37
2023-02-16T08:16:21.774Z,590.27
2023-02-16T08:18:50.716Z,601.20
2023-02-16T08:21:19.767Z,544.20
2023-02-16T08:23:48.066Z,423.33
2023-02-16T08:26:17.252Z,494.77
2023-02-16T08:28:47.629Z,401.90
2023-02-16T08:31:19.262Z,791.13
2023-02-16T08:33:47.630Z,676.63
2023-02-16T08:36:41.190Z,655.70
2023-02-16T08:39:09.991Z,896.83
2023-02-16T08:41:37.591Z,815.63
2023-02-16T08:44:07.931Z,515.20
2023-02-16T08:46:35.916Z,745.37
2023-02-16T08:49:03.127Z,828.60
2023-02-16T08:51:31.732Z,1011.47
2023-02-16T08:54:00.239Z,586.37
2023-02-16T08:56:29.755Z,906.27
2023-02-16T08:58:57.533Z,759.40
2023-02-16T09:01:24.658Z,758.67
2023-02-16T09:03:52.374Z,489.43
2023-02-16T09:06:21.442Z,579.20
2023-02-16T09:08:52.698Z,551.77
2023-02-16T09:11:20.602Z,711.33
2023-02-16T09:13:48.071Z,632.33
2023-02-16T09:16:17.170Z,529.43
2023-02-16T09:18:44.991Z,693.00
2023-02-16T09:21:16.616Z,713.67
2023-02-16T09:23:47.344Z,489.50
2023-02-16T09:26:16.518Z,1031.17
2023-02-16T09:28:44.775Z,724.17
2023-02-16T09:31:16.880Z,646.33
2023-02-16T09:33:45.459Z,555.57
2023-02-16T09:36:13.783Z,699.60
2023-02-16T09:38:41.185Z,658.07
2023-02-16T09:41:14.396Z,513.93
2023-02-16T09:43:41.513Z,721.20
2023-02-16T09:46:12.008Z,501.00
2023-02-16T09:48:42.614Z,610.00
2023-02-16T09:51:14.654Z,557.07
2023-02-16T09:53:43.977Z,377.80
2023-02-16T09:56:40.325Z,466.63
2023-02-16T09:59:22.468Z,520.23
2023-02-16T10:01:56.786Z,469.03
2023-02-16T10:04:44.228Z,448.47
2023-02-16T10:07:31.726Z,429.07
2023-02-16T10:10:00.862Z,571.33
2023-02-16T10:12:29.927Z,593.37
2023-02-16T10:14:58.839Z,667.87
2023-02-16T10:17:34.907Z,526.70
2023-02-16T10:20:06.226Z,449.87
2023-02-16T10:22:38.555Z,593.70
2023-02-16T10:25:09.702Z,691.97
2023-02-16T10:27:41.233Z,466.17
2023-02-16T10:30:17.119Z,401.33
2023-02-16T10:33:03.923Z,357.80
2023-02-16T10:35:47.414Z,475.67
2023-02-16T10:38:33.342Z,370.23
2023-02-16T10:41:19.405Z,350.30
2023-02-16T10:43:57.019Z,299.93
2023-02-16T10:46:26.370Z,287.70
2023-02-16T10:48:54.544Z,269.73
2023-02-16T10:51:25.507Z,295.13
2023-02-16T10:53:59.796Z,259.73
2023-02-16T10:56:26.915Z,250.40
2023-02-16T10:58:54.413Z,247.70
2023-02-16T11:01:22.942Z,267.67
2023-02-16T11:03:50.774Z,260.67
2023-02-16T11:06:18.077Z,242.37
2023-02-16T11:08:54.186Z,235.97
2023-02-16T11:11:22.892Z,240.60
2023-02-16T11:13:50.908Z,223.47
2023-02-16T11:16:22.232Z,224.43
2023-02-16T11:18:56.492Z,203.50
2023-02-16T11:21:42.691Z,199.83
2023-02-16T11:24:13.645Z,202.90
2023-02-16T11:26:40.796Z,187.27
2023-02-16T11:29:18.667Z,169.07
2023-02-16T11:31:46.244Z,177.57
2023-02-16T11:34:16.819Z,160.30
2023-02-16T11:36:45.877Z,156.10
2023-02-16T11:39:15.767Z,148.60
2023-02-16T11:41:48.639Z,140.43
2023-02-16T11:44:27.146Z,137.37
2023-02-16T11:46:55.826Z,129.40
2023-02-16T11:49:43.238Z,139.20
2023-02-16T11:52:22.197Z,100.80
2023-02-16T11:54:53.750Z,100.50
2023-02-16T11:57:25.406Z,100.73
2023-02-16T11:59:53.969Z,93.30
2023-02-16T12:02:30.295Z,87.50
2023-02-16T12:05:08.230Z,92.73
2023-02-16T12:07:43.996Z,89.87
2023-02-16T12:10:29.932Z,88.53
2023-02-16T12:12:57.315Z,90.57
2023-02-16T12:15:37.136Z,85.93
2023-02-16T12:18:13.511Z,82.00
2023-02-16T12:20:53.232Z,80.70
2023-02-16T12:23:26.816Z,78.50
2023-02-16T12:26:12.564Z,69.57
2023-02-16T12:28:45.854Z,66.43
2023-02-16T12:31:30.079Z,77.83
2023-02-16T12:34:00.259Z,68.30
2023-02-16T12:36:39.472Z,68.87
2023-02-16T12:39:09.342Z,63.23
2023-02-16T12:41:40.123Z,66.13
2023-02-16T12:44:12.727Z,59.53
2023-02-16T12:46:48.027Z,61.20
2023-02-16T12:49:21.032Z,62.53
2023-02-16T12:51:59.342Z,51.60
2023-02-16T12:54:32.262Z,55.80
2023-02-16T12:56:59.395Z,50.20
2023-02-16T12:59:47.087Z,48.20
2023-02-16T13:02:27.074Z,46.20
2023-02-16T13:04:54.191Z,46.73
2023-02-16T13:07:33.356Z,44.93
2023-02-16T13:10:22.789Z,45.80
2023-02-16T13:12:49.957Z,42.27
2023-02-16T13:15:22.607Z,42.40
2023-02-16T13:17:51.216Z,37.93
2023-02-16T13:20:19.886Z,43.77
2023-02-16T13:23:02.042Z,39.83
2023-02-16T13:25:38.417Z,41.77
2023-02-16T13:28:23.938Z,47.10
2023-02-16T13:30:57.270Z,39.00
2023-02-16T13:33:27.617Z,37.90
2023-02-16T13:35:58.525Z,39.13
2023-02-16T13:38:31.764Z,40.93
2023-02-16T13:40:58.858Z,40.53
2023-02-16T13:43:49.017Z,40.87
2023-02-16T13:46:24.897Z,38.73
2023-02-16T13:48:53.577Z,42.60
2023-02-16T13:51:22.016Z,43.57
2023-02-16T13:53:56.936Z,43.00
2023-02-16T13:56:29.925Z,43.00
2023-02-16T13:58:58.243Z,45.47
2023-02-16T14:01:43.015Z,48.07
2023-02-16T14:04:33.253Z,46.23
2023-02-16T14:07:03.586Z,44.43
2023-02-16T14:09:30.706Z,40.70
2023-02-16T14:11:59.410Z,41.60
2023-02-16T14:14:46.241Z,41.13
2023-02-16T14:17:22.556Z,40.67
2023-02-16T14:20:08.993Z,44.03
2023-02-16T14:22:36.155Z,42.10
2023-02-16T14:25:05.877Z,39.23
2023-02-16T14:27:54.104Z,37.87
2023-02-16T14:30:39.811Z,36.73
2023-02-16T14:33:06.956Z,33.67
2023-02-16T14:35:35.702Z,34.67
2023-02-16T14:38:05.063Z,31.53
2023-02-16T14:40:35.307Z,32.93
2023-02-16T14:43:08.351Z,32.50
2023-02-16T14:45:49.310Z,30.70
2023-02-16T14:48:31.043Z,33.10
2023-02-16T14:51:01.295Z,30.20
2023-02-16T14:53:52.151Z,33.13
2023-02-16T14:56:37.847Z,28.07
2023-02-16T14:59:17.153Z,31.03
2023-02-16T15:01:45.719Z,34.27
2023-02-16T15:04:13.118Z,33.70
2023-02-16T15:06:42.660Z,34.20
2023-02-16T15:09:15.741Z,35.33
2023-02-16T15:12:09.687Z,38.00
2023-02-16T15:14:42.781Z,38.83
2023-02-16T15:17:10.688Z,36.43
2023-02-16T15:19:39.632Z,42.37
2023-02-16T15:22:20.809Z,40.63
2023-02-16T15:24:57.372Z,36.87
2023-02-16T15:27:25.924Z,33.70
2023-02-16T15:30:11.924Z,41.37
2023-02-16T15:32:39.171Z,39.77
2023-02-16T15:35:10.997Z,40.73
2023-02-16T15:37:40.384Z,43.17
2023-02-16T15:40:26.536Z,41.93
2023-02-16T15:42:54.716Z,43.93
2023-02-16T15:45:29.470Z,44.07
2023-02-16T15:48:15.591Z,41.70
2023-02-16T15:50:43.625Z,42.27
2023-02-16T15:53:14.709Z,40.00
2023-02-16T15:55:43.051Z,42.30
2023-02-16T15:58:12.596Z,43.97
2023-02-16T16:00:41.538Z,42.40
2023-02-16T16:03:09.849Z,43.97
2023-02-16T16:05:39.716Z,37.93
2023-02-16T16:08:07.927Z,37.77
2023-02-16T16:10:36.761Z,39.57
2023-02-16T16:13:09.030Z,37.43
2023-02-16T16:15:39.359Z,38.93
2023-02-16T16:18:06.694Z,37.37
2023-02-16T16:20:36.663Z,36.77
2023-02-16T16:23:05.470Z,33.03
2023-02-16T16:25:38.777Z,38.07
2023-02-16T16:28:12.006Z,36.90
2023-02-16T16:30:45.205Z,36.37
2023-02-16T16:33:14.057Z,38.00
2023-02-16T16:35:45.484Z,35.40
2023-02-16T16:38:24.009Z,36.03
2023-02-16T16:40:53.097Z,35.37
2023-02-16T16:43:21.141Z,36.13
2023-02-16T16:45:56.792Z,37.17
2023-02-16T16:48:26.869Z,33.33
2023-02-16T16:51:11.945Z,36.67
2023-02-16T16:53:54.367Z,35.73
2023-02-16T16:56:22.589Z,32.63
2023-02-16T16:58:51.291Z,36.60
2023-02-16T17:01:19.325Z,35.63
2023-02-16T17:03:46.598Z,30.27
2023-02-16T17:06:17.637Z,32.50
2023-02-16T17:08:45.450Z,37.97
2023-02-16T17:11:17.001Z,32.57
2023-02-16T17:13:44.134Z,33.87
2023-02-16T17:16:22.017Z,33.87
2023-02-16T17:18:49.212Z,34.00
2023-02-16T17:21:16.973Z,37.93
2023-02-16T17:23:52.500Z,34.67
2023-02-16T17:26:20.262Z,28.93
2023-02-16T17:28:47.459Z,28.43
2023-02-16T17:31:14.753Z,33.17
2023-02-16T17:33:42.028Z,25.83
2023-02-16T17:36:09.357Z,28.97
2023-02-16T17:38:36.558Z,33.33
2023-02-16T17:41:03.737Z,30.27
2023-02-16T17:43:30.900Z,26.90
2023-02-16T17:46:01.084Z,30.60
2023-02-16T17:48:30.269Z,28.63
2023-02-16T17:51:00.540Z,26.37
2023-02-16T17:53:28.247Z,31.87
2023-02-16T17:55:56.676Z,27.00
2023-02-16T17:58:24.660Z,27.70
2023-02-16T18:00:52.017Z,29.67
2023-02-16T18:03:19.527Z,32.93
2023-02-16T18:05:47.121Z,29.77
2023-02-16T18:08:14.266Z,27.03
2023-02-16T18:10:50.654Z,30.37
2023-02-16T18:13:18.294Z,33.77
2023-02-16T18:15:47.646Z,37.07
2023-02-16T18:18:15.970Z,33.50
2023-02-16T18:20:43.631Z,31.67
2023-02-16T18:23:11.237Z,29.17
2023-02-16T18:25:39.256Z,33.27
2023-02-16T18:28:06.646Z,30.13
2023-02-16T18:30:33.846Z,32.70
2023-02-16T18:33:01.126Z,37.47
2023-02-16T18:35:28.322Z,32.07
2023-02-16T18:37:55.469Z,31.60
2023-02-16T18:40:22.830Z,37.17
2023-02-16T18:42:50.172Z,33.63
2023-02-16T18:45:17.612Z,36.23
2023-02-16T18:47:45.213Z,35.93
2023-02-16T18:50:12.849Z,36.57
2023-02-16T18:52:42.482Z,36.07
2023-02-16T18:55:10.569Z,40.10
2023-02-16T18:57:37.821Z,40.87
2023-02-16T19:00:08.705Z,42.27
2023-02-16T19:02:35.993Z,36.80
2023-02-16T19:05:03.665Z,40.30
2023-02-16T19:07:30.790Z,43.73
2023-02-16T19:09:57.945Z,41.40
2023-02-16T19:12:25.436Z,43.70
2023-02-16T19:14:52.559Z,41.87
2023-02-16T19:17:19.713Z,37.93
2023-02-16T19:19:46.999Z,43.70
2023-02-16T19:22:14.145Z,38.67
2023-02-16T19:24:41.314Z,41.60
2023-02-16T19:27:08.453Z,39.67
2023-02-16T19:29:35.601Z,42.40
2023-02-16T19:32:02.785Z,37.10
2023-02-16T19:34:30.021Z,39.37
2023-02-16T19:36:57.204Z,39.57
2023-02-16T19:39:24.349Z,37.43
2023-02-16T19:41:51.554Z,39.83
2023-02-16T19:44:18.680Z,38.47
2023-02-16T19:46:45.838Z,38.60
2023-02-16T19:49:17.119Z,34.97
2023-02-16T19:51:46.257Z,39.80
2023-02-16T19:54:13.588Z,41.13
2023-02-16T19:56:41.228Z,42.40
2023-02-16T19:59:08.810Z,42.50
2023-02-16T20:01:36.252Z,42.43
2023-02-16T20:04:03.921Z,42.57
2023-02-16T20:06:39.194Z,39.83
2023-02-16T20:09:06.700Z,37.40
2023-02-16T20:11:33.897Z,39.57
2023-02-16T20:14:01.870Z,40.67
2023-02-16T20:16:29.107Z,36.60
2023-02-16T20:18:56.553Z,41.70
2023-02-16T20:21:24.839Z,41.03
2023-02-16T20:23:53.792Z,41.40
2023-02-16T20:26:22.274Z,42.00
2023-02-16T20:28:50.299Z,41.13
2023-02-16T20:31:19.820Z,37.43
2023-02-16T20:33:47.104Z,43.57
2023-02-16T20:36:14.328Z,42.73
2023-02-16T20:38:41.485Z,38.10
2023-02-16T20:41:08.832Z,37.83
2023-02-16T20:43:37.310Z,40.33
2023-02-16T20:46:05.932Z,39.77
2023-02-16T20:48:33.574Z,36.13
2023-02-16T20:51:01.911Z,38.43
2023-02-16T20:53:29.263Z,40.37
2023-02-16T20:56:06.042Z,37.43
2023-02-16T20:58:33.512Z,41.20
2023-02-16T21:01:00.722Z,36.47
2023-02-16T21:03:28.021Z,34.77
2023-02-16T21:05:55.737Z,38.10
2023-02-16T21:08:22.985Z,39.20
2023-02-16T21:10:50.103Z,34.50
2023-02-16T21:13:17.271Z,36.13
2023-02-16T21:15:44.402Z,39.57
2023-02-16T21:18:11.610Z,38.53
2023-02-16T21:20:38.765Z,42.70
2023-02-16T21:23:07.026Z,40.07
2023-02-16T21:25:34.194Z,39.67
2023-02-16T21:28:01.397Z,43.77
2023-02-16T21:30:28.621Z,39.73
2023-02-16T21:32:56.027Z,38.07
2023-02-16T21:35:23.190Z,31.97
2023-02-16T21:37:50.312Z,39.10
2023-02-16T21:40:36.184Z,39.13
2023-02-16T21:43:03.332Z,35.70
2023-02-16T21:45:30.479Z,32.67
2023-02-16T21:48:16.167Z,35.97
2023-02-16T21:50:43.321Z,33.93
2023-02-16T21:53:10.511Z,36.13
2023-02-16T21:55:56.893Z,36.57
2023-02-16T21:58:26.826Z,33.97
2023-02-16T22:00:54.629Z,33.33
2023-02-16T22:03:21.866Z,32.87
2023-02-16T22:05:49.020Z,33.00
2023-02-16T22:08:16.218Z,31.60
2023-02-16T22:10:43.367Z,37.50
2023-02-16T22:13:10.609Z,38.33
2023-02-16T22:15:37.789Z,39.33
2023-02-16T22:18:05.736Z,34.03
2023-02-16T22:20:32.956Z,36.77
2023-02-16T22:23:00.138Z,39.47
2023-02-16T22:25:27.307Z,37.77
2023-02-16T22:27:55.048Z,40.70
2023-02-16T22:30:22.395Z,43.83
2023-02-16T22:32:51.371Z,41.30
2023-02-16T22:35:18.596Z,39.60
2023-02-16T22:37:45.863Z,44.03
2023-02-16T22:40:13.058Z,43.97
2023-02-16T22:42:40.292Z,41.80
2023-02-16T22:45:07.645Z,40.83
2023-02-16T22:47:34.776Z,38.93
2023-02-16T22:50:02.313Z,40.60
2023-02-16T22:52:30.003Z,40.03
2023-02-16T22:54:57.288Z,37.27
2023-02-16T22:57:24.558Z,40.53
2023-02-16T22:59:51.688Z,36.97
2023-02-16T23:02:18.881Z,43.17
2023-02-16T23:04:46.069Z,41.30
2023-02-16T23:07:13.269Z,37.20
2023-02-16T23:09:40.400Z,35.67
2023-02-16T23:12:07.656Z,34.00
2023-02-16T23:14:36.964Z,37.20
2023-02-16T23:17:04.134Z,37.70
2023-02-16T23:19:32.547Z,34.37
2023-02-16T23:21:59.902Z,39.00
2023-02-16T23:24:27.246Z,37.77
2023-02-16T23:26:54.877Z,34.93
2023-02-16T23:29:22.116Z,37.57
2023-02-16T23:31:49.559Z,35.87
2023-02-16T23:34:17.094Z,36.90
2023-02-16T23:36:44.372Z,36.63
2023-02-16T23:39:12.991Z,37.10
2023-02-16T23:41:40.477Z,35.90
2023-02-16T23:44:07.872Z,39.70
2023-02-16T23:46:35.096Z,34.73
2023-02-16T23:49:02.229Z,38.43
2023-02-16T23:51:29.443Z,36.73
2023-02-16T23:53:57.057Z,30.20
2023-02-16T23:56:25.582Z,33.77
2023-02-16T23:58:53.332Z,33.33
